KVDI/VDI METAR and TAF weather

Enter ICAO airport designator
Station Type Date Time Source
KVDI METAR 2019/08/25 18:15 UTC NOAA

KVDI 251815Z AUTO 06008KT 010V080 10SM OVC017 27/20 A3006 RMK AO2


Station Type Date Time Source
KVDI Decoded METAR 2019/08/25 18:15 UTC NOAA

Station name not available
Aug 25, 2019 - 02:15 PM EDT / 2019.08.25 1815 UTC
Wind: from the ENE (060 degrees) at 9 MPH (8 KT) (direction variable):0
Visibility: 10 mile(s):0
Sky conditions: overcast
Temperature: 80 F (27 C)
Dew Point: 68 F (20 C)
Relative Humidity: 65%
Pressure (altimeter): 30.06 in. Hg (1017 hPa)
ob: KVDI 251815Z AUTO 06008KT 010V080 10SM OVC017 27/20 A3006 RMK AO2
cycle: 18

Station Type Date Time Source
KVDI TAF UTC NOAA

Error!

Example: see airport list